KSVE/SVE METAR and TAF weather

Enter ICAO airport designator
Station Type Date Time Source
KSVE METAR 2020/04/01 23:15 UTC NOAA

KSVE 012315Z AUTO 34013KT 10SM CLR 08/M13 A2986 RMK AO2


Station Type Date Time Source
KSVE Decoded METAR 2020/04/01 23:15 UTC NOAA

Susanville Municipal, CA, United States (KSVE) 40-23N 120-34W
Apr 01, 2020 - 07:15 PM EDT / 2020.04.01 2315 UTC
Wind: from the NNW (340 degrees) at 15 MPH (13 KT):0
Visibility: 10 mile(s):0
Sky conditions: clear
Temperature: 46 F (8 C)
Dew Point: 8 F (-13 C)
Relative Humidity: 20%
Pressure (altimeter): 29.86 in. Hg (1011 hPa)
ob: KSVE 012315Z AUTO 34013KT 10SM CLR 08/M13 A2986 RMK AO2
cycle: 23

Station Type Date Time Source
KSVE TAF UTC NOAA

Error!

Example: see airport list